Time;durP1;ratioP1;P1;durP2;ratioP2;P2;SDS_P1;SDS_P2;PMS_P1;PMS_P2;Temp;Humidity;BMP_temperature;BMP_pressure;BME280_temperature;BME280_humidity;BME280_pressure;Samples;Min_cycle;Max_cycle;Signal;HPM_P1;HPM_P2
2022/01/23 00:02:11;;;;;;;8.23;5.20;;;7.50;93.00;;;;;;5085704;28;20035;-72
2022/01/23 00:04:38;;;;;;;8.30;5.50;;;7.50;93.00;;;;;;5071810;28;20062;-73
2022/01/23 00:07:05;;;;;;;8.02;5.05;;;7.50;93.30;;;;;;5069746;28;20051;-71
2022/01/23 00:09:31;;;;;;;6.30;4.43;;;7.50;93.00;;;;;;5070254;28;20039;-71
2022/01/23 00:11:59;;;;;;;9.00;4.97;;;7.50;93.00;;;;;;5064143;28;20032;-70
2022/01/23 00:17:33;;;;;;;6.65;4.53;;;7.60;93.00;;;;;;5087245;28;20028;-72
2022/01/23 00:19:58;;;;;;;7.22;4.97;;;7.60;93.00;;;;;;5065024;28;20123;-71
2022/01/23 00:22:33;;;;;;;6.95;4.68;;;7.50;93.00;;;;;;5082201;28;20024;-72
2022/01/23 00:30:31;;;;;;;6.85;4.32;;;7.60;93.10;;;;;;5068800;28;20059;-72
2022/01/23 00:33:02;;;;;;;6.38;3.95;;;7.60;93.10;;;;;;5065916;28;20047;-73
2022/01/23 00:35:29;;;;;;;7.10;4.28;;;7.60;93.10;;;;;;5064133;28;20036;-72
2022/01/23 00:37:56;;;;;;;5.22;3.53;;;7.60;93.10;;;;;;5071882;28;20115;-72
2022/01/23 00:40:23;;;;;;;6.75;4.18;;;7.60;93.10;;;;;;5065979;28;20060;-73
2022/01/23 00:42:49;;;;;;;6.95;4.57;;;7.60;93.10;;;;;;5074816;28;20020;-73
2022/01/23 00:45:33;;;;;;;6.47;4.10;;;7.60;93.10;;;;;;5068820;28;20738;-73
2022/01/23 00:48:06;;;;;;;6.43;4.00;;;7.60;93.10;;;;;;5077338;28;20089;-75
2022/01/23 00:50:41;;;;;;;5.97;4.22;;;7.60;93.20;;;;;;5069386;28;20039;-74
2022/01/23 00:53:09;;;;;;;4.93;3.58;;;7.60;93.10;;;;;;5066835;28;20408;-74
2022/01/23 00:55:55;;;;;;;4.63;3.92;;;7.60;93.10;;;;;;5066451;28;20040;-74
2022/01/23 00:58:20;;;;;;;6.07;3.88;;;7.60;93.20;;;;;;5065649;28;20135;-72
2022/01/23 01:00:46;;;;;;;4.70;3.42;;;7.60;93.20;;;;;;5075056;28;20027;-71
2022/01/23 01:03:12;;;;;;;4.28;3.25;;;7.60;93.20;;;;;;5064069;28;20732;-74
2022/01/23 01:05:38;;;;;;;6.18;3.92;;;7.60;93.20;;;;;;5068121;28;20028;-74
2022/01/23 01:08:05;;;;;;;5.72;3.58;;;7.60;93.20;;;;;;5067365;28;20045;-74
2022/01/23 01:10:38;;;;;;;5.00;3.63;;;7.60;93.20;;;;;;5070972;28;20037;-73
2022/01/23 01:13:05;;;;;;;5.15;3.60;;;7.60;93.10;;;;;;5078763;28;20054;-74
2022/01/23 01:32:07;;;;;;;5.30;3.80;;;7.70;93.10;;;;;;5071243;28;20082;-73
2022/01/23 01:34:41;;;;;;;6.13;4.10;;;7.70;93.10;;;;;;5087597;28;20075;-74
2022/01/23 01:37:09;;;;;;;6.60;4.30;;;7.60;93.10;;;;;;5073739;28;20029;-73
2022/01/23 01:39:35;;;;;;;5.32;3.63;;;7.70;93.10;;;;;;5073281;28;20111;-75
2022/01/23 01:42:01;;;;;;;6.35;4.60;;;7.60;93.00;;;;;;5066492;28;20536;-73
2022/01/23 01:44:30;;;;;;;5.75;4.20;;;7.60;93.10;;;;;;5071532;28;20040;-74
2022/01/23 01:47:29;;;;;;;8.52;5.68;;;7.70;93.20;;;;;;5069205;28;20044;-73
2022/01/23 01:50:06;;;;;;;6.95;4.43;;;7.70;93.10;;;;;;5072306;28;20023;-73
2022/01/23 01:52:34;;;;;;;4.57;3.70;;;7.60;93.00;;;;;;5069670;28;20111;-74
2022/01/23 01:55:04;;;;;;;7.20;4.68;;;7.70;93.10;;;;;;5067291;28;20060;-74
2022/01/23 01:57:43;;;;;;;4.55;3.72;;;7.70;93.10;;;;;;5074616;28;20180;-74
2022/01/23 02:00:55;;;;;;;6.65;4.53;;;7.70;93.10;;;;;;5062866;28;20036;-74
2022/01/23 02:08:54;;;;;;;7.28;4.45;;;7.60;93.00;;;;;;5088780;28;20094;-74
2022/01/23 02:11:35;;;;;;;5.82;4.13;;;7.60;93.00;;;;;;5068993;28;20032;-74
2022/01/23 02:25:42;;;;;;;5.13;3.70;;;7.50;93.10;;;;;;5081575;28;20131;-74
2022/01/23 02:55:28;;;;;;;5.38;3.35;;;7.60;93.10;;;;;;5085056;28;20039;-74
2022/01/23 02:58:04;;;;;;;5.97;3.40;;;7.60;93.10;;;;;;5085715;28;20444;-73
2022/01/23 03:00:36;;;;;;;6.13;4.05;;;7.60;93.00;;;;;;5070267;28;20064;-74
2022/01/23 03:03:11;;;;;;;5.10;3.42;;;7.60;93.00;;;;;;5065998;28;20175;-74
2022/01/23 03:09:07;;;;;;;6.00;3.70;;;7.60;93.00;;;;;;5084258;28;20128;-74
2022/01/23 03:14:18;;;;;;;5.97;3.97;;;7.60;93.10;;;;;;5076287;28;20467;-74
2022/01/23 03:30:03;;;;;;;5.07;3.42;;;7.40;93.30;;;;;;5072463;28;20107;-74
2022/01/23 03:32:33;;;;;;;4.72;3.70;;;7.40;93.40;;;;;;5085777;28;20119;-74
2022/01/23 03:34:59;;;;;;;7.40;3.83;;;7.40;93.30;;;;;;5065619;28;20040;-74
2022/01/23 03:37:24;;;;;;;8.63;4.45;;;7.40;93.30;;;;;;5069642;28;20109;-74
2022/01/23 03:39:50;;;;;;;6.55;4.15;;;7.40;93.20;;;;;;5065326;28;20017;-74
2022/01/23 03:42:16;;;;;;;5.22;3.78;;;7.50;93.10;;;;;;5062556;28;20753;-74
2022/01/23 03:44:52;;;;;;;5.65;3.40;;;7.40;93.10;;;;;;5077685;28;20039;-74
2022/01/23 03:47:33;;;;;;;6.03;3.95;;;7.40;93.20;;;;;;5084118;28;20044;-74
2022/01/23 03:50:00;;;;;;;5.70;3.67;;;7.40;93.20;;;;;;5081594;28;20039;-74
2022/01/23 03:52:37;;;;;;;5.60;3.90;;;7.50;93.20;;;;;;5073799;28;20079;-74
2022/01/23 03:55:05;;;;;;;7.72;4.13;;;7.50;93.20;;;;;;5076433;28;20036;-73
2022/01/23 03:57:33;;;;;;;6.55;3.90;;;7.50;93.10;;;;;;5066208;28;20028;-73
2022/01/23 03:59:59;;;;;;;7.50;4.47;;;7.50;93.10;;;;;;5070787;28;20063;-73
2022/01/23 04:02:25;;;;;;;6.18;3.95;;;7.50;93.10;;;;;;5069824;28;20056;-74
2022/01/23 04:04:51;;;;;;;6.95;3.88;;;7.50;93.20;;;;;;5064079;28;20111;-74
2022/01/23 04:07:24;;;;;;;6.00;3.75;;;7.50;93.20;;;;;;5067413;28;20059;-74
2022/01/23 04:09:50;;;;;;;6.20;3.92;;;7.50;93.20;;;;;;5078652;28;20035;-74
2022/01/23 04:12:31;;;;;;;7.20;3.55;;;7.50;93.20;;;;;;5069935;28;20492;-74
2022/01/23 04:15:09;;;;;;;5.63;3.47;;;7.50;93.20;;;;;;5070886;28;20032;-75
2022/01/23 04:33:48;;;;;;;6.60;3.67;;;7.60;93.10;;;;;;5069833;28;20033;-74
2022/01/23 05:01:02;;;;;;;5.22;3.90;;;7.40;93.40;;;;;;5086400;28;20752;-73
2022/01/23 05:06:27;;;;;;;5.78;4.15;;;7.40;93.40;;;;;;5062987;28;20071;-73
2022/01/23 05:09:03;;;;;;;6.53;3.60;;;7.40;93.30;;;;;;5087984;28;20024;-73
2022/01/23 05:11:48;;;;;;;6.20;4.05;;;7.40;93.40;;;;;;5065995;28;20719;-73
2022/01/23 05:14:28;;;;;;;5.75;3.92;;;7.40;93.40;;;;;;5077454;28;20531;-73
2022/01/23 05:16:54;;;;;;;4.85;3.25;;;7.40;93.40;;;;;;5070934;28;20082;-73
2022/01/23 05:19:20;;;;;;;6.53;3.97;;;7.40;93.40;;;;;;5072322;28;20027;-73
2022/01/23 05:22:04;;;;;;;6.30;3.58;;;7.40;93.30;;;;;;5073930;28;20028;-73
2022/01/23 05:24:36;;;;;;;9.55;4.28;;;7.50;93.30;;;;;;5067104;28;20096;-73
2022/01/23 05:27:06;;;;;;;6.03;3.92;;;7.40;93.10;;;;;;5064359;28;20024;-73
2022/01/23 05:29:32;;;;;;;7.05;4.80;;;7.40;93.30;;;;;;5070765;28;20020;-73
2022/01/23 05:31:57;;;;;;;5.53;3.83;;;7.40;93.20;;;;;;5073842;28;20035;-73
2022/01/23 05:34:24;;;;;;;4.82;3.40;;;7.40;93.20;;;;;;5074987;28;20058;-73
2022/01/23 05:36:52;;;;;;;5.25;3.85;;;7.40;93.20;;;;;;5076072;28;20024;-73
2022/01/23 05:39:21;;;;;;;5.57;3.83;;;7.40;93.20;;;;;;5081325;28;20046;-74
2022/01/23 05:41:52;;;;;;;5.35;3.83;;;7.50;93.20;;;;;;5082438;28;20056;-73
2022/01/23 05:44:18;;;;;;;7.68;4.03;;;7.50;93.50;;;;;;5071000;28;20684;-74
2022/01/23 05:46:44;;;;;;;5.40;3.65;;;7.50;93.30;;;;;;5063562;28;20056;-74
2022/01/23 05:49:16;;;;;;;7.57;3.97;;;7.50;93.30;;;;;;5069307;28;20021;-74
2022/01/23 05:52:06;;;;;;;7.32;4.05;;;7.50;93.30;;;;;;5073504;28;20032;-73
2022/01/23 05:54:50;;;;;;;5.85;3.67;;;7.50;93.20;;;;;;5075895;28;20086;-73
2022/01/23 05:57:34;;;;;;;6.20;3.95;;;7.50;93.20;;;;;;5074671;28;20052;-74
2022/01/23 06:00:17;;;;;;;7.25;4.63;;;7.50;93.20;;;;;;5076980;28;20589;-74
2022/01/23 06:02:52;;;;;;;7.72;4.55;;;7.50;93.20;;;;;;5066769;28;20125;-73
2022/01/23 06:05:23;;;;;;;7.63;4.15;;;7.50;93.30;;;;;;5067896;28;20032;-73
2022/01/23 06:07:55;;;;;;;6.72;4.50;;;7.50;93.30;;;;;;5074270;28;20032;-73
2022/01/23 06:10:24;;;;;;;7.93;4.45;;;7.50;93.30;;;;;;5076726;28;20024;-74
2022/01/23 06:12:52;;;;;;;7.38;4.72;;;7.50;93.30;;;;;;5082595;28;20032;-73
2022/01/23 06:15:18;;;;;;;6.43;4.18;;;7.50;93.40;;;;;;5075969;28;20052;-74
2022/01/23 06:17:45;;;;;;;7.30;4.60;;;7.50;93.40;;;;;;5080921;28;20020;-74
2022/01/23 06:20:47;;;;;;;7.18;4.10;;;7.50;93.40;;;;;;5031968;28;20021;-74
2022/01/23 06:23:55;;;;;;;6.75;4.78;;;7.50;93.30;;;;;;5073428;28;20036;-73
2022/01/23 06:26:50;;;;;;;6.65;4.10;;;7.40;93.30;;;;;;5066149;28;20403;-74
2022/01/23 06:29:18;;;;;;;7.10;4.25;;;7.40;93.40;;;;;;5078251;28;20155;-74
2022/01/23 06:31:46;;;;;;;7.55;4.47;;;7.40;93.50;;;;;;5079809;28;20035;-74
2022/01/23 06:34:13;;;;;;;6.50;3.92;;;7.50;93.50;;;;;;5074157;28;20093;-74
2022/01/23 06:36:40;;;;;;;6.28;3.90;;;7.50;93.50;;;;;;5071133;28;20032;-74
2022/01/23 06:39:08;;;;;;;7.55;4.25;;;7.50;93.40;;;;;;5075694;28;20554;-73
2022/01/23 06:41:34;;;;;;;7.05;3.92;;;7.40;93.40;;;;;;5075932;28;20542;-73
2022/01/23 06:44:11;;;;;;;7.45;4.63;;;7.40;93.50;;;;;;5077559;28;20040;-73
2022/01/23 06:46:40;;;;;;;7.90;4.25;;;7.40;93.50;;;;;;5067642;28;20025;-74
2022/01/23 06:49:07;;;;;;;5.75;3.85;;;7.40;93.60;;;;;;5069878;28;20024;-73
2022/01/23 06:51:37;;;;;;;7.38;3.78;;;7.40;93.60;;;;;;5076272;28;20097;-73
2022/01/23 06:54:05;;;;;;;6.90;4.55;;;7.50;93.50;;;;;;5069940;28;20029;-73
2022/01/23 06:56:31;;;;;;;8.30;4.25;;;7.50;93.40;;;;;;5083255;28;20039;-73
2022/01/23 06:58:57;;;;;;;7.20;3.90;;;7.50;93.40;;;;;;5076901;28;20104;-73
2022/01/23 07:01:23;;;;;;;8.27;4.38;;;7.50;93.70;;;;;;5071891;28;20082;-70
2022/01/23 07:04:07;;;;;;;5.18;3.55;;;7.50;93.40;;;;;;5079734;28;20036;-72
2022/01/23 07:06:46;;;;;;;6.13;3.90;;;7.50;93.30;;;;;;5070407;28;20027;-73
2022/01/23 07:09:31;;;;;;;10.00;5.05;;;7.50;93.40;;;;;;5071332;28;20032;-73
2022/01/23 07:12:13;;;;;;;9.32;4.70;;;7.50;93.50;;;;;;5069609;28;20046;-73
2022/01/23 07:14:48;;;;;;;10.70;5.93;;;7.50;93.50;;;;;;5073554;28;20045;-73
2022/01/23 07:17:29;;;;;;;9.55;5.07;;;7.50;93.60;;;;;;5068921;28;20028;-73
2022/01/23 07:20:02;;;;;;;15.15;7.43;;;7.50;93.50;;;;;;5074498;28;20188;-73
2022/01/23 07:22:32;;;;;;;10.70;5.97;;;7.50;93.50;;;;;;5077085;28;20031;-73
2022/01/23 07:25:01;;;;;;;6.43;4.30;;;7.60;93.50;;;;;;5080373;28;20051;-73
2022/01/23 07:27:32;;;;;;;7.50;3.80;;;7.50;93.40;;;;;;5071036;28;20035;-74
2022/01/23 07:29:58;;;;;;;5.88;3.58;;;7.50;93.50;;;;;;5073789;28;20078;-74
2022/01/23 07:32:24;;;;;;;4.88;3.50;;;7.50;93.50;;;;;;5069045;28;20470;-73
2022/01/23 07:34:51;;;;;;;5.43;3.47;;;7.60;93.60;;;;;;5076686;28;20024;-72
2022/01/23 07:37:19;;;;;;;5.07;3.45;;;7.60;93.70;;;;;;5068386;28;20403;-74
2022/01/23 07:40:04;;;;;;;5.70;3.45;;;7.60;93.40;;;;;;5075459;28;20030;-75
2022/01/23 07:42:35;;;;;;;5.60;3.50;;;7.60;93.40;;;;;;5066587;28;20032;-74
2022/01/23 07:45:03;;;;;;;5.20;3.47;;;7.60;93.30;;;;;;5074269;28;20044;-74
2022/01/23 07:47:48;;;;;;;5.35;3.40;;;7.70;93.30;;;;;;5071987;28;20055;-74
2022/01/23 07:50:18;;;;;;;5.65;3.80;;;7.60;93.30;;;;;;5081279;28;20514;-72
2022/01/23 07:52:50;;;;;;;7.40;4.55;;;7.70;93.30;;;;;;5073741;28;20020;-71
2022/01/23 07:55:42;;;;;;;5.72;4.13;;;7.70;93.40;;;;;;5063963;28;20039;-74
2022/01/23 07:58:30;;;;;;;10.07;6.15;;;7.60;93.30;;;;;;5076944;28;20499;-74
2022/01/23 08:01:06;;;;;;;11.87;7.03;;;7.60;93.30;;;;;;5070023;28;20030;-74
2022/01/23 08:03:38;;;;;;;8.02;4.90;;;7.60;93.40;;;;;;5074494;28;20029;-73
2022/01/23 08:06:13;;;;;;;7.43;4.25;;;7.70;93.60;;;;;;5070262;28;20492;-76
2022/01/23 08:08:41;;;;;;;6.35;3.95;;;7.70;93.60;;;;;;5077677;28;20047;-66
2022/01/23 08:11:10;;;;;;;5.32;3.65;;;7.70;93.60;;;;;;5084174;28;20043;-68
2022/01/23 08:13:36;;;;;;;8.23;4.05;;;7.80;93.60;;;;;;5070638;28;20050;-72
2022/01/23 08:16:01;;;;;;;6.15;3.17;;;7.80;93.60;;;;;;5063126;28;20612;-71
2022/01/23 08:18:27;;;;;;;6.28;3.42;;;7.90;93.50;;;;;;5078840;28;20028;-69
2022/01/23 08:20:53;;;;;;;4.53;2.95;;;7.90;93.50;;;;;;5073655;28;20043;-72
2022/01/23 08:23:20;;;;;;;4.68;3.13;;;8.00;93.40;;;;;;5073300;28;20024;-65
2022/01/23 08:25:46;;;;;;;5.40;3.28;;;8.00;93.40;;;;;;5078050;28;20032;-68
2022/01/23 08:28:12;;;;;;;4.65;3.17;;;8.10;93.40;;;;;;5068932;28;20369;-69
2022/01/23 08:30:38;;;;;;;6.13;4.05;;;8.10;93.30;;;;;;5084806;28;20031;-68
2022/01/23 08:33:04;;;;;;;5.55;3.55;;;8.20;93.30;;;;;;5078883;28;21007;-69
2022/01/23 08:35:30;;;;;;;5.07;3.33;;;8.30;93.10;;;;;;5080615;28;20028;-69
2022/01/23 08:37:55;;;;;;;4.75;2.47;;;8.30;93.00;;;;;;5074394;28;20032;-71
2022/01/23 08:43:17;;;;;;;4.32;3.10;;;8.40;93.00;;;;;;5050959;28;20082;-69
2022/01/23 08:45:43;;;;;;;5.82;3.30;;;8.50;92.90;;;;;;5082220;28;20040;-69
2022/01/23 08:48:09;;;;;;;6.47;3.60;;;8.50;92.70;;;;;;5090917;28;20051;-69
2022/01/23 08:50:35;;;;;;;5.05;3.60;;;8.50;92.70;;;;;;5096824;27;20028;-69
2022/01/23 08:53:01;;;;;;;3.38;2.60;;;8.50;92.50;;;;;;5085536;28;20032;-71
2022/01/23 08:55:27;;;;;;;4.78;2.75;;;8.50;92.50;;;;;;5068232;28;20060;-69
2022/01/23 08:57:53;;;;;;;3.60;2.78;;;8.50;92.60;;;;;;5072942;28;20075;-69
2022/01/23 09:00:19;;;;;;;3.85;2.67;;;8.50;92.70;;;;;;5094235;27;20026;-69
2022/01/23 09:02:45;;;;;;;4.78;3.10;;;8.60;92.60;;;;;;5082851;28;20614;-69
2022/01/23 09:05:11;;;;;;;4.00;2.65;;;8.60;92.60;;;;;;5073329;28;20047;-69
2022/01/23 09:07:37;;;;;;;3.65;2.60;;;8.60;92.50;;;;;;5070557;28;20035;-70
2022/01/23 09:10:04;;;;;;;3.72;2.40;;;8.50;92.50;;;;;;5068439;28;20131;-69
2022/01/23 09:15:06;;;;;;;2.88;2.00;;;8.50;92.60;;;;;;5090553;27;20563;-71
2022/01/23 09:17:32;;;;;;;3.08;2.30;;;8.60;92.60;;;;;;5086588;28;20091;-69
2022/01/23 09:19:59;;;;;;;4.18;3.03;;;8.60;92.50;;;;;;5076493;28;20033;-74
2022/01/23 09:22:28;;;;;;;3.08;2.17;;;8.60;92.60;;;;;;5095992;28;20039;-73
2022/01/23 09:24:55;;;;;;;3.13;2.28;;;8.60;92.60;;;;;;5088988;27;20484;-73
2022/01/23 09:27:21;;;;;;;3.13;2.28;;;8.60;92.80;;;;;;5073974;28;20029;-73
2022/01/23 09:29:53;;;;;;;3.75;2.75;;;8.60;92.80;;;;;;5080245;28;20479;-74
2022/01/23 09:32:22;;;;;;;4.20;2.63;;;8.70;92.50;;;;;;5079708;28;20059;-74
2022/01/23 09:34:48;;;;;;;5.03;3.20;;;8.70;92.40;;;;;;5079076;28;20033;-74
2022/01/23 09:37:16;;;;;;;3.75;2.70;;;8.70;92.30;;;;;;5090305;28;20044;-74
2022/01/23 09:39:45;;;;;;;3.35;2.63;;;8.70;92.40;;;;;;5071361;28;20025;-74
2022/01/23 09:42:11;;;;;;;3.33;2.30;;;8.60;92.50;;;;;;5078008;28;20459;-74
2022/01/23 09:44:44;;;;;;;2.92;2.33;;;8.60;92.50;;;;;;5071232;28;20046;-74
2022/01/23 09:47:12;;;;;;;4.05;2.85;;;8.70;92.50;;;;;;5071773;28;20041;-74
2022/01/23 09:49:39;;;;;;;3.88;2.28;;;8.70;92.50;;;;;;5086044;28;20435;-74
2022/01/23 09:52:08;;;;;;;3.58;2.17;;;8.70;92.60;;;;;;5077070;28;20115;-74
2022/01/23 09:54:35;;;;;;;3.22;2.28;;;8.70;92.60;;;;;;5079270;28;20047;-74
2022/01/23 09:57:05;;;;;;;3.00;2.25;;;8.80;92.60;;;;;;5083576;28;20118;-74
2022/01/23 09:59:31;;;;;;;3.22;2.42;;;8.80;92.60;;;;;;5072557;28;20121;-72
2022/01/23 10:01:57;;;;;;;3.25;2.25;;;8.80;92.40;;;;;;5069775;28;20066;-69
2022/01/23 10:04:24;;;;;;;4.78;2.35;;;8.80;92.50;;;;;;5074702;28;20146;-70
2022/01/23 10:06:51;;;;;;;3.22;2.45;;;8.80;92.50;;;;;;5074090;28;20042;-70
2022/01/23 10:09:18;;;;;;;3.53;2.40;;;8.80;92.50;;;;;;5080066;28;20028;-70
2022/01/23 10:11:46;;;;;;;2.80;2.13;;;8.80;92.60;;;;;;5076158;28;20085;-70
2022/01/23 10:14:12;;;;;;;5.00;2.50;;;8.80;92.60;;;;;;5073182;28;20507;-70
2022/01/23 10:16:38;;;;;;;4.40;2.95;;;8.90;92.80;;;;;;5074439;28;20024;-69
2022/01/23 10:19:04;;;;;;;5.13;2.63;;;9.00;92.70;;;;;;5076808;28;20043;-70
2022/01/23 10:21:33;;;;;;;4.15;2.58;;;9.00;92.60;;;;;;5092841;27;20028;-69
2022/01/23 10:23:59;;;;;;;2.63;2.15;;;9.00;92.50;;;;;;5084482;28;20033;-69
2022/01/23 10:26:46;;;;;;;3.25;2.65;;;9.00;92.40;;;;;;5088057;27;20176;-69
2022/01/23 10:29:20;;;;;;;5.45;3.08;;;9.00;92.20;;;;;;5069736;28;20492;-70
2022/01/23 10:32:11;;;;;;;4.93;3.45;;;9.00;92.50;;;;;;5074195;28;20031;-70
2022/01/23 10:34:43;;;;;;;3.58;2.70;;;9.00;92.40;;;;;;5069406;28;20024;-70
2022/01/23 10:37:11;;;;;;;3.85;2.65;;;9.10;92.50;;;;;;5089315;27;20036;-70
2022/01/23 10:39:43;;;;;;;3.92;3.10;;;9.10;92.40;;;;;;5072569;28;20024;-69
2022/01/23 10:46:39;;;;;;;4.65;3.00;;;9.10;92.50;;;;;;5070417;28;20497;-68
2022/01/23 10:51:11;;;;;;;8.23;5.38;;;9.60;92.60;;;;;;5072130;28;20080;-73
2022/01/23 10:54:05;;;;;;;18.60;9.63;;;9.80;92.40;;;;;;5076203;28;20357;-65
2022/01/23 10:56:38;;;;;;;5.03;3.55;;;9.90;91.70;;;;;;5069724;28;20036;-68
2022/01/23 10:59:12;;;;;;;9.85;6.15;;;9.90;91.50;;;;;;5075645;28;20039;-68
2022/01/23 11:01:39;;;;;;;10.88;6.65;;;9.90;91.50;;;;;;5087276;27;20559;-68
2022/01/23 11:04:12;;;;;;;5.35;3.60;;;9.80;91.60;;;;;;5082780;28;20139;-68
2022/01/23 11:07:08;;;;;;;4.38;2.83;;;9.80;91.80;;;;;;5077061;28;20035;-69
2022/01/23 11:09:36;;;;;;;5.13;2.60;;;9.80;91.80;;;;;;5073696;28;20040;-69
2022/01/23 11:12:29;;;;;;;4.22;2.65;;;9.90;91.70;;;;;;5074785;28;20051;-69
2022/01/23 11:17:52;;;;;;;3.30;2.58;;;10.10;91.60;;;;;;5080740;28;20476;-67
2022/01/23 11:20:38;;;;;;;3.85;2.42;;;10.20;91.70;;;;;;5092744;27;20104;-76
2022/01/23 11:23:27;;;;;;;2.83;2.20;;;10.20;92.00;;;;;;5088496;28;20079;-66
2022/01/23 11:25:52;;;;;;;2.08;1.75;;;10.40;91.40;;;;;;5072864;28;20444;-70
2022/01/23 11:28:20;;;;;;;2.05;1.73;;;10.40;90.70;;;;;;5073467;28;20101;-71
2022/01/23 11:30:48;;;;;;;2.35;2.00;;;10.30;90.80;;;;;;5080724;28;20105;-69
2022/01/23 11:33:18;;;;;;;2.53;1.92;;;10.20;90.80;;;;;;5069463;28;20423;-70
2022/01/23 11:35:45;;;;;;;2.47;1.85;;;10.30;91.00;;;;;;5076727;28;20598;-68
2022/01/23 11:38:16;;;;;;;1.70;1.50;;;10.30;91.10;;;;;;5073423;28;20032;-69
2022/01/23 11:54:00;;;;;;;1.98;1.60;;;10.10;91.10;;;;;;5072708;28;20053;-68
2022/01/23 11:56:31;;;;;;;2.10;1.70;;;10.00;91.30;;;;;;5086200;27;20039;-68
2022/01/23 11:59:25;;;;;;;1.52;1.40;;;10.00;91.50;;;;;;5065731;28;20051;-68
2022/01/23 12:02:12;;;;;;;2.03;1.60;;;10.00;91.30;;;;;;5073310;28;20127;-68
2022/01/23 12:04:39;;;;;;;3.47;2.10;;;10.00;91.40;;;;;;5084649;28;20069;-66
2022/01/23 12:07:11;;;;;;;2.13;1.92;;;9.90;91.50;;;;;;5073968;28;20031;-72
2022/01/23 12:10:02;;;;;;;1.90;1.60;;;9.90;91.60;;;;;;5070075;28;20031;-70
2022/01/23 12:12:38;;;;;;;2.42;1.50;;;9.90;91.60;;;;;;5073507;28;20124;-67
2022/01/23 12:18:17;;;;;;;3.35;1.55;;;9.90;91.90;;;;;;5074032;28;19911;-73
2022/01/23 12:20:46;;;;;;;3.80;1.50;;;10.00;91.80;;;;;;5071883;28;20078;-73
2022/01/23 12:23:14;;;;;;;2.35;1.30;;;9.90;91.60;;;;;;5085991;28;20028;-72
2022/01/23 12:25:55;;;;;;;2.20;1.20;;;9.90;91.60;;;;;;5082684;28;20429;-73
2022/01/23 12:28:29;;;;;;;2.35;1.58;;;9.80;91.70;;;;;;5080091;28;20024;-73
2022/01/23 12:31:00;;;;;;;3.90;1.80;;;9.70;91.80;;;;;;5079746;28;20028;-73
2022/01/23 12:33:43;;;;;;;2.25;1.63;;;9.80;91.90;;;;;;5077598;28;20059;-72
2022/01/23 12:36:14;;;;;;;1.83;1.52;;;9.70;91.90;;;;;;5085004;28;20025;-73
2022/01/23 12:38:50;;;;;;;2.42;1.40;;;9.70;91.70;;;;;;5071206;28;20024;-71
2022/01/23 12:41:31;;;;;;;2.23;1.60;;;9.70;91.80;;;;;;5075525;28;20035;-72
2022/01/23 12:44:04;;;;;;;1.58;1.30;;;9.80;91.70;;;;;;5075936;28;20316;-67
2022/01/23 12:46:49;;;;;;;1.50;1.17;;;9.80;91.80;;;;;;5073445;28;20037;-69
2022/01/23 12:49:26;;;;;;;1.67;1.23;;;9.80;91.70;;;;;;5071127;28;20044;-68
2022/01/23 12:52:17;;;;;;;1.55;1.30;;;9.80;91.70;;;;;;5069895;28;20139;-69
2022/01/23 12:54:52;;;;;;;1.73;1.25;;;9.90;91.70;;;;;;5086503;28;20143;-72
2022/01/23 12:57:35;;;;;;;1.98;1.05;;;9.90;91.70;;;;;;5072739;28;20048;-71
2022/01/23 13:00:11;;;;;;;1.33;1.23;;;9.90;91.40;;;;;;5075868;28;20099;-72
2022/01/23 13:02:45;;;;;;;1.88;1.45;;;9.90;91.60;;;;;;5074933;28;20032;-73
2022/01/23 13:05:14;;;;;;;1.45;1.30;;;10.00;91.70;;;;;;5070641;28;20047;-72
2022/01/23 13:08:00;;;;;;;1.80;1.30;;;10.00;91.70;;;;;;5083700;28;20038;-71
2022/01/23 13:10:53;;;;;;;1.38;1.13;;;10.00;91.70;;;;;;5076301;28;20766;-72
2022/01/23 13:18:49;;;;;;;1.17;1.08;;;10.00;91.50;;;;;;5089091;27;20103;-72
2022/01/23 13:35:08;;;;;;;4.70;3.05;;;9.70;91.80;;;;;;5088857;27;20033;-73
2022/01/23 13:37:36;;;;;;;3.50;1.60;;;9.70;91.80;;;;;;5091268;27;20047;-73
2022/01/23 13:40:14;;;;;;;2.13;1.40;;;9.70;91.60;;;;;;5060024;28;20123;-73
2022/01/23 13:47:53;;;;;;;2.08;1.30;;;9.70;91.70;;;;;;5080345;28;20024;-66
2022/01/23 13:59:35;;;;;;;1.15;0.90;;;9.80;91.90;;;;;;5078766;28;20133;-74
2022/01/23 14:04:37;;;;;;;1.48;1.23;;;9.80;91.70;;;;;;5075611;28;20111;-68
2022/01/23 14:07:03;;;;;;;1.13;1.00;;;9.80;91.70;;;;;;5079990;28;20024;-68
2022/01/23 14:09:35;;;;;;;1.48;1.00;;;9.70;91.70;;;;;;5081172;28;20123;-72
2022/01/23 14:12:08;;;;;;;1.20;0.88;;;9.60;91.90;;;;;;5069899;28;20181;-72
2022/01/23 14:14:33;;;;;;;1.30;0.70;;;9.60;92.10;;;;;;5059203;28;20044;-70
2022/01/23 14:17:12;;;;;;;2.28;0.98;;;9.60;92.00;;;;;;5075173;28;20032;-73
2022/01/23 14:19:38;;;;;;;2.35;1.05;;;9.50;92.10;;;;;;5075927;28;20028;-73
2022/01/23 14:22:04;;;;;;;1.70;1.02;;;9.50;92.10;;;;;;5081691;28;20024;-73
2022/01/23 14:24:33;;;;;;;4.20;1.90;;;9.50;92.20;;;;;;5078818;28;20036;-71
2022/01/23 14:27:08;;;;;;;2.83;1.60;;;9.50;92.30;;;;;;5077953;28;20180;-67
2022/01/23 14:29:46;;;;;;;3.47;1.70;;;9.50;92.30;;;;;;5078214;28;20047;-69
2022/01/23 14:32:23;;;;;;;1.30;1.00;;;9.50;92.30;;;;;;5074501;28;20032;-70
2022/01/23 14:34:49;;;;;;;1.15;0.82;;;9.60;92.30;;;;;;5081586;28;20376;-69
2022/01/23 14:37:25;;;;;;;0.68;0.50;;;9.60;92.30;;;;;;5081560;28;20438;-69
2022/01/23 14:40:05;;;;;;;1.08;0.80;;;9.60;92.30;;;;;;5082576;28;20035;-74
2022/01/23 14:42:31;;;;;;;0.70;0.70;;;9.50;92.20;;;;;;5084721;28;20111;-72
2022/01/23 14:44:57;;;;;;;3.53;0.85;;;9.50;92.20;;;;;;5081081;28;20107;-70
2022/01/23 14:47:22;;;;;;;1.40;0.60;;;9.50;92.30;;;;;;5094205;28;20060;-70
2022/01/23 14:49:50;;;;;;;1.10;0.90;;;9.40;92.40;;;;;;5075999;28;20024;-75
2022/01/23 14:52:15;;;;;;;0.80;0.60;;;9.40;92.50;;;;;;5079048;28;20861;-72
2022/01/23 14:54:42;;;;;;;1.27;0.80;;;9.40;92.50;;;;;;5077767;28;20028;-72
2022/01/23 14:57:11;;;;;;;2.00;0.80;;;9.40;92.60;;;;;;5075678;28;20093;-73
2022/01/23 14:59:37;;;;;;;0.95;0.73;;;9.30;92.60;;;;;;5074942;28;20038;-73
2022/01/23 15:02:05;;;;;;;0.95;0.90;;;9.30;92.60;;;;;;5072922;28;20024;-72
2022/01/23 15:04:42;;;;;;;0.32;0.32;;;9.40;92.60;;;;;;5080647;28;20032;-73
2022/01/23 15:07:14;;;;;;;1.52;0.70;;;9.40;92.70;;;;;;5079864;28;20139;-72
2022/01/23 15:09:39;;;;;;;1.05;0.75;;;9.40;92.70;;;;;;5078740;28;20826;-74
2022/01/23 15:12:05;;;;;;;1.52;0.65;;;9.40;92.70;;;;;;5075551;28;20118;-74
2022/01/23 15:14:32;;;;;;;1.17;0.70;;;9.30;92.60;;;;;;5081945;28;20071;-74
2022/01/23 15:16:58;;;;;;;2.05;1.30;;;9.30;92.60;;;;;;5078434;28;20149;-74
2022/01/23 15:19:24;;;;;;;4.82;1.85;;;9.30;92.60;;;;;;5078690;28;20028;-74
2022/01/23 15:21:50;;;;;;;4.13;1.80;;;9.30;92.50;;;;;;5081477;28;20840;-74
2022/01/23 15:24:16;;;;;;;2.47;1.20;;;9.30;92.60;;;;;;5087441;28;20930;-68
2022/01/23 15:26:42;;;;;;;2.42;1.17;;;9.20;92.70;;;;;;5080912;28;20403;-73
2022/01/23 15:29:08;;;;;;;3.67;1.17;;;9.20;92.70;;;;;;5062286;28;20020;-74
2022/01/23 15:31:35;;;;;;;2.10;1.30;;;9.20;92.80;;;;;;5079938;28;20797;-76
2022/01/23 15:34:02;;;;;;;1.52;1.33;;;9.20;92.80;;;;;;5081854;28;20031;-76
2022/01/23 15:36:28;;;;;;;1.30;0.85;;;9.20;92.70;;;;;;5083728;28;20078;-76
2022/01/23 15:38:54;;;;;;;1.73;1.00;;;9.20;92.70;;;;;;5077784;28;20399;-76
2022/01/23 15:41:19;;;;;;;1.42;0.75;;;9.10;92.70;;;;;;5072899;28;20033;-76
2022/01/23 15:43:46;;;;;;;0.80;0.80;;;9.10;92.70;;;;;;5076577;28;20036;-73
2022/01/23 15:46:13;;;;;;;1.05;0.85;;;9.10;92.70;;;;;;5091932;28;20048;-74
2022/01/23 15:48:39;;;;;;;4.57;2.13;;;9.10;92.70;;;;;;5087028;28;20036;-76
2022/01/23 15:51:06;;;;;;;4.40;2.38;;;9.10;92.80;;;;;;5084560;28;20895;-75
2022/01/23 15:53:32;;;;;;;3.15;1.60;;;9.10;92.80;;;;;;5075526;28;20064;-74
2022/01/23 15:55:58;;;;;;;2.67;1.50;;;9.10;92.90;;;;;;5073507;28;20024;-74
2022/01/23 15:58:28;;;;;;;0.85;0.75;;;9.00;92.90;;;;;;5073610;28;20039;-74
2022/01/23 16:00:54;;;;;;;1.23;1.13;;;9.00;93.00;;;;;;5077463;28;20435;-72
2022/01/23 16:03:20;;;;;;;0.80;0.70;;;9.00;92.80;;;;;;5077313;28;20055;-73
2022/01/23 16:05:46;;;;;;;0.47;0.45;;;9.00;92.80;;;;;;5076497;28;20051;-73
2022/01/23 16:08:13;;;;;;;1.25;0.60;;;9.10;92.80;;;;;;5076438;28;20072;-72
2022/01/23 16:10:39;;;;;;;0.80;0.65;;;9.00;92.80;;;;;;5073161;28;20035;-73
2022/01/23 16:13:05;;;;;;;0.60;0.50;;;9.00;92.90;;;;;;5077179;28;20403;-71
2022/01/23 16:15:31;;;;;;;1.00;0.60;;;9.00;92.90;;;;;;5078681;28;20863;-74
2022/01/23 16:17:57;;;;;;;2.03;1.60;;;9.00;92.90;;;;;;5077710;28;20110;-74
2022/01/23 16:20:23;;;;;;;1.95;1.20;;;9.00;93.00;;;;;;5072347;28;20044;-73
2022/01/23 16:22:49;;;;;;;1.70;1.20;;;9.00;93.00;;;;;;5080217;28;20024;-73
2022/01/23 16:25:17;;;;;;;2.38;1.40;;;9.00;93.00;;;;;;5070494;28;20050;-70
2022/01/23 16:27:43;;;;;;;4.60;2.70;;;9.00;93.10;;;;;;5076593;28;20047;-71
2022/01/23 16:30:10;;;;;;;5.30;2.85;;;9.00;93.00;;;;;;5078039;28;20036;-71
2022/01/23 16:32:36;;;;;;;6.00;2.88;;;9.00;93.00;;;;;;5084466;28;20036;-70
2022/01/23 16:35:04;;;;;;;4.60;2.80;;;9.00;93.00;;;;;;5083320;28;20097;-71
2022/01/23 16:37:29;;;;;;;6.00;2.83;;;9.00;93.00;;;;;;5072341;28;20131;-71